Time;durP1;ratioP1;P1;durP2;ratioP2;P2;SDS_P1;SDS_P2;PMS_P1;PMS_P2;Temp;Humidity;BMP_temperature;BMP_pressure;BME280_temperature;BME280_humidity;BME280_pressure;Samples;Min_cycle;Max_cycle;Signal;HPM_P1;HPM_P2
2022/01/31 00:01:37;;;;;;;5.90;1.52;;;;;;;1.26;53.82;93721.25;5063633;28;20219;-70
2022/01/31 00:04:03;;;;;;;16.38;2.58;;;;;;;1.28;53.82;93739.38;5063633;28;20397;-71
2022/01/31 00:06:29;;;;;;;10.18;2.38;;;;;;;1.26;53.22;93739.63;5063382;28;20024;-70
2022/01/31 00:08:54;;;;;;;13.82;2.05;;;;;;;1.34;53.96;93749.66;5063192;28;20025;-70
2022/01/31 00:11:20;;;;;;;24.02;3.10;;;;;;;1.35;54.31;93738.09;5063211;28;20067;-70
2022/01/31 00:13:56;;;;;;;21.10;2.70;;;;;;;1.34;54.01;93743.59;5062414;28;20025;-71
2022/01/31 00:16:25;;;;;;;20.73;3.25;;;;;;;1.35;53.90;93751.22;5063148;28;20376;-70
2022/01/31 00:18:50;;;;;;;19.60;2.55;;;;;;;1.36;54.27;93758.06;5063119;28;20032;-71
2022/01/31 00:21:16;;;;;;;16.75;2.55;;;;;;;1.25;53.84;93740.69;5063005;28;20088;-70
2022/01/31 00:23:41;;;;;;;17.15;2.60;;;;;;;1.32;53.96;93756.19;5063055;28;20083;-71
2022/01/31 00:26:09;;;;;;;13.70;2.67;;;;;;;1.29;54.57;93751.47;5063333;28;20096;-71
2022/01/31 00:28:34;;;;;;;18.13;2.97;;;;;;;1.28;54.36;93771.66;5063139;28;20024;-71
2022/01/31 00:31:00;;;;;;;15.88;2.55;;;;;;;1.23;54.56;93758.53;5062983;28;20060;-70
2022/01/31 00:33:25;;;;;;;15.93;3.38;;;;;;;1.23;54.20;93752.50;5062882;28;20326;-71
2022/01/31 00:35:51;;;;;;;15.43;2.00;;;;;;;1.26;54.38;93751.97;5061711;28;20346;-71
2022/01/31 00:38:16;;;;;;;16.15;2.95;;;;;;;1.25;54.15;93769.56;5062770;28;20032;-71
2022/01/31 00:40:42;;;;;;;10.23;3.70;;;;;;;1.23;54.13;93770.88;5061669;28;20021;-70
2022/01/31 00:43:13;;;;;;;11.43;3.00;;;;;;;1.24;54.71;93775.84;5062847;28;20099;-71
2022/01/31 00:45:46;;;;;;;18.33;2.97;;;;;;;1.20;54.49;93782.66;5062882;28;20191;-71
2022/01/31 00:48:18;;;;;;;9.05;2.88;;;;;;;1.20;54.58;93774.78;5062359;28;20265;-71
2022/01/31 00:50:47;;;;;;;14.40;1.77;;;;;;;1.14;54.48;93770.56;5062587;28;20108;-71
2022/01/31 00:53:12;;;;;;;25.13;2.63;;;;;;;1.13;54.70;93784.75;5062555;28;20092;-71
2022/01/31 00:55:38;;;;;;;20.20;3.38;;;;;;;1.15;54.20;93782.66;5062719;28;20196;-71
2022/01/31 00:58:04;;;;;;;22.95;3.05;;;;;;;1.15;54.51;93782.66;5062590;28;20025;-71
2022/01/31 01:00:29;;;;;;;12.27;2.50;;;;;;;1.19;54.21;93766.13;5062497;28;20033;-71
2022/01/31 01:02:55;;;;;;;13.80;2.75;;;;;;;1.17;54.03;93776.09;5062261;28;20037;-71
2022/01/31 01:05:20;;;;;;;9.75;2.92;;;;;;;1.21;53.81;93786.88;5062783;28;20047;-71
2022/01/31 01:07:46;;;;;;;9.05;2.42;;;;;;;1.29;53.87;93786.38;5062523;28;20268;-72
2022/01/31 01:10:20;;;;;;;25.20;3.25;;;;;;;1.28;54.33;93774.28;5062349;28;20029;-71
2022/01/31 01:12:47;;;;;;;22.35;2.88;;;;;;;1.30;54.00;93792.41;5062163;28;20037;-71
2022/01/31 01:15:14;;;;;;;11.23;2.13;;;;;;;1.34;54.47;93791.69;5062512;28;20025;-71
2022/01/31 01:17:40;;;;;;;12.85;2.92;;;;;;;1.37;53.27;93785.91;5062466;28;20061;-72
2022/01/31 01:20:06;;;;;;;19.33;2.30;;;;;;;1.32;54.24;93783.25;5061150;28;20025;-72
2022/01/31 01:22:32;;;;;;;17.73;2.90;;;;;;;1.29;54.13;93783.75;5062291;28;20024;-72
2022/01/31 01:24:59;;;;;;;10.27;2.50;;;;;;;1.35;53.73;93772.22;5061999;28;20024;-72
2022/01/31 01:27:25;;;;;;;16.38;3.35;;;;;;;1.38;53.74;93794.56;5062287;28;20021;-72
2022/01/31 01:29:50;;;;;;;18.42;2.80;;;;;;;1.42;54.26;93779.06;5062012;28;20021;-72
2022/01/31 01:32:16;;;;;;;12.40;2.90;;;;;;;1.42;54.12;93773.81;5062034;28;20029;-72
2022/01/31 01:34:43;;;;;;;16.42;2.75;;;;;;;1.36;53.62;93763.31;5062291;28;20025;-72
2022/01/31 01:37:09;;;;;;;11.63;2.25;;;;;;;1.22;53.14;93756.16;5062536;28;20021;-72
2022/01/31 01:39:34;;;;;;;15.43;2.17;;;;;;;1.22;53.17;93764.81;5062134;28;20095;-72
2022/01/31 01:42:00;;;;;;;10.18;2.15;;;;;;;1.23;53.03;93757.75;5062046;28;20315;-72
2022/01/31 01:44:45;;;;;;;11.93;2.30;;;;;;;1.20;52.78;93765.09;5062259;28;20245;-72
2022/01/31 01:47:14;;;;;;;8.20;2.63;;;;;;;1.17;53.24;93754.31;5062120;28;20280;-71
2022/01/31 01:49:39;;;;;;;9.07;2.95;;;;;;;1.19;53.80;93752.22;5062175;28;20047;-71
2022/01/31 01:52:05;;;;;;;10.00;2.42;;;;;;;1.24;53.18;93764.56;5061934;28;20315;-71
2022/01/31 01:54:31;;;;;;;11.35;2.47;;;;;;;1.15;53.21;93751.16;5061984;28;20033;-71
2022/01/31 01:56:58;;;;;;;31.75;2.53;;;;;;;1.16;52.87;93757.97;5061837;28;20345;-71
2022/01/31 01:59:24;;;;;;;15.90;2.17;;;;;;;1.14;52.97;93757.44;5061902;28;20025;-71
2022/01/31 02:01:50;;;;;;;6.68;1.83;;;;;;;1.09;53.12;93755.59;5061976;28;20258;-71
2022/01/31 02:04:16;;;;;;;5.35;1.77;;;;;;;1.02;53.17;93762.09;5062079;28;20044;-71
2022/01/31 02:06:42;;;;;;;16.55;2.10;;;;;;;1.04;53.30;93768.69;5062202;28;20028;-71
2022/01/31 02:09:11;;;;;;;11.10;2.75;;;;;;;1.03;52.84;93769.72;5062019;28;20031;-71
2022/01/31 02:11:37;;;;;;;15.88;2.20;;;;;;;1.06;52.81;93753.47;5061533;28;20041;-72
2022/01/31 02:14:03;;;;;;;28.10;3.55;;;;;;;1.11;52.75;93755.34;5061788;28;20047;-71
2022/01/31 02:16:28;;;;;;;14.90;2.42;;;;;;;1.11;52.90;93743.00;5061537;28;20028;-70
2022/01/31 02:18:54;;;;;;;12.35;2.10;;;;;;;1.14;52.63;93747.75;5060484;28;20092;-72
2022/01/31 02:21:20;;;;;;;7.07;1.88;;;;;;;1.13;53.01;93759.28;5061705;28;20025;-70
2022/01/31 02:23:47;;;;;;;8.38;2.20;;;;;;;1.08;53.46;93759.25;5061701;28;20017;-71
2022/01/31 02:26:13;;;;;;;8.95;2.00;;;;;;;1.10;53.39;93761.63;5061625;28;20021;-71
2022/01/31 02:28:41;;;;;;;19.42;3.35;;;;;;;1.19;53.63;93763.50;5061797;28;20025;-71
2022/01/31 02:31:07;;;;;;;10.13;1.63;;;;;;;1.03;53.04;93759.22;5061659;28;20094;-71
2022/01/31 02:33:33;;;;;;;12.68;3.72;;;;;;;1.07;53.30;93756.88;5061486;28;20029;-72
2022/01/31 02:36:04;;;;;;;10.07;2.17;;;;;;;1.11;53.68;93768.47;5062163;28;20029;-72
2022/01/31 02:38:30;;;;;;;15.45;2.78;;;;;;;1.07;53.91;93764.75;5065137;28;20099;-71
2022/01/31 02:40:56;;;;;;;25.25;3.25;;;;;;;1.06;53.73;93768.41;5064957;28;20021;-72
2022/01/31 02:43:27;;;;;;;9.63;1.90;;;;;;;1.06;52.58;93771.84;5065224;28;20017;-72
2022/01/31 02:45:53;;;;;;;6.78;1.95;;;;;;;1.02;53.05;93780.47;5064984;28;20025;-72
2022/01/31 02:48:23;;;;;;;10.98;2.42;;;;;;;1.01;53.14;93766.56;5064590;28;20017;-72
2022/01/31 02:50:48;;;;;;;9.57;1.90;;;;;;;0.85;53.46;93773.56;5065019;28;20080;-72
2022/01/31 02:53:25;;;;;;;11.63;2.45;;;;;;;0.91;53.24;93769.16;5064603;28;20024;-72
2022/01/31 02:55:53;;;;;;;13.98;2.47;;;;;;;0.95;53.22;93770.22;5064853;28;20024;-71
2022/01/31 02:58:20;;;;;;;16.80;3.47;;;;;;;0.93;53.50;93786.22;5064867;28;20021;-71
2022/01/31 03:00:45;;;;;;;6.68;1.95;;;;;;;0.91;54.00;93775.16;5064652;28;20055;-72
2022/01/31 03:03:11;;;;;;;12.98;1.73;;;;;;;0.95;53.20;93771.00;5064762;28;20017;-72
2022/01/31 03:05:37;;;;;;;11.07;1.85;;;;;;;0.95;53.84;93767.59;5064637;28;20020;-71
2022/01/31 03:08:03;;;;;;;10.70;1.90;;;;;;;0.96;53.60;93775.22;5064540;28;20036;-72
2022/01/31 03:10:29;;;;;;;14.05;2.58;;;;;;;1.00;53.31;93770.25;5064662;28;20043;-71
2022/01/31 03:12:55;;;;;;;12.40;1.80;;;;;;;1.03;53.02;93779.44;5064360;28;20332;-71
2022/01/31 03:15:20;;;;;;;11.10;2.45;;;;;;;1.08;53.35;93782.06;5064488;28;20021;-71
2022/01/31 03:17:48;;;;;;;7.93;1.75;;;;;;;1.07;53.58;93785.75;5064492;28;20025;-71
2022/01/31 03:20:18;;;;;;;11.30;2.38;;;;;;;0.78;53.22;93758.06;5064633;28;20044;-71
2022/01/31 03:22:45;;;;;;;5.10;1.80;;;;;;;0.73;53.36;93767.72;5064341;28;20341;-71
2022/01/31 03:25:10;;;;;;;7.00;1.58;;;;;;;0.78;53.46;93775.63;5064362;28;20079;-71
2022/01/31 03:27:37;;;;;;;9.23;1.70;;;;;;;0.77;53.24;93763.56;5064403;28;20219;-71
2022/01/31 03:30:08;;;;;;;11.10;2.28;;;;;;;0.76;53.74;93754.91;5064156;28;20025;-72
2022/01/31 03:32:33;;;;;;;15.77;2.30;;;;;;;0.68;53.92;93759.84;5063949;28;20020;-71
2022/01/31 03:35:01;;;;;;;7.25;1.85;;;;;;;0.77;54.28;93753.88;5063933;28;20032;-72
2022/01/31 03:37:27;;;;;;;21.90;3.28;;;;;;;0.72;54.57;93748.56;5063868;28;20024;-71
2022/01/31 03:39:52;;;;;;;12.60;2.10;;;;;;;0.75;53.48;93768.25;5064064;28;20102;-71
2022/01/31 03:42:18;;;;;;;6.82;1.42;;;;;;;0.74;53.96;93764.06;5063913;28;20021;-71
2022/01/31 03:44:48;;;;;;;17.25;2.00;;;;;;;0.75;54.03;93773.50;5064091;28;20043;-71
2022/01/31 03:47:15;;;;;;;7.80;1.83;;;;;;;0.70;53.76;93768.25;5063752;28;20322;-72
2022/01/31 03:49:41;;;;;;;15.57;3.35;;;;;;;0.72;53.82;93766.16;5063896;28;20024;-71
2022/01/31 03:52:06;;;;;;;12.50;2.20;;;;;;;0.65;54.26;93761.13;5063725;28;20207;-71
2022/01/31 03:54:32;;;;;;;5.18;1.58;;;;;;;0.65;53.45;93763.75;5063715;28;20059;-70
2022/01/31 03:56:57;;;;;;;6.60;1.92;;;;;;;0.68;53.46;93765.09;5063519;28;20067;-70
2022/01/31 03:59:23;;;;;;;15.27;1.95;;;;;;;0.69;54.04;93762.22;5063747;28;20025;-71
2022/01/31 04:01:48;;;;;;;8.13;2.40;;;;;;;0.73;53.49;93765.09;5063523;28;20089;-72
2022/01/31 04:04:13;;;;;;;13.55;1.92;;;;;;;0.70;53.13;93769.03;5063628;28;20200;-72
2022/01/31 04:06:41;;;;;;;9.20;1.85;;;;;;;0.59;53.26;93760.31;5063361;28;20025;-72
2022/01/31 04:09:07;;;;;;;6.45;2.35;;;;;;;0.68;53.49;93771.13;5063394;28;20044;-71
2022/01/31 04:11:33;;;;;;;8.98;2.28;;;;;;;0.63;53.60;93765.81;5063355;28;20048;-72
2022/01/31 04:13:59;;;;;;;13.27;2.20;;;;;;;0.68;53.80;93767.72;5063300;28;20315;-71
2022/01/31 04:16:24;;;;;;;5.35;1.70;;;;;;;0.67;53.05;93776.59;5063069;28;20048;-71
2022/01/31 04:18:49;;;;;;;10.48;3.22;;;;;;;0.65;52.83;93776.06;5063056;28;20095;-71
2022/01/31 04:21:15;;;;;;;5.80;1.83;;;;;;;0.62;53.79;93768.72;5063463;28;20219;-72
2022/01/31 04:23:40;;;;;;;4.70;1.50;;;;;;;0.62;53.71;93773.97;5063290;28;20021;-71
2022/01/31 04:26:10;;;;;;;11.70;2.20;;;;;;;0.61;53.71;93762.66;5063031;28;20104;-72
2022/01/31 04:28:45;;;;;;;14.18;2.28;;;;;;;0.56;53.72;93779.16;5063106;28;20032;-71
2022/01/31 04:31:58;;;;;;;9.65;1.90;;;;;;;0.48;54.78;93769.16;5062788;28;20028;-71
2022/01/31 04:33:58;;;;;;;7.55;2.17;;;;;;;0.27;55.27;93773.47;5062376;28;20062;-71
2022/01/31 04:36:24;;;;;;;12.75;2.60;;;;;;;0.31;55.63;93755.41;5062955;28;20024;-71
2022/01/31 04:38:50;;;;;;;4.55;1.50;;;;;;;0.30;56.12;93766.91;5062809;28;20086;-72
2022/01/31 04:41:16;;;;;;;15.40;2.63;;;;;;;0.26;55.54;93771.09;5062951;28;20196;-71
2022/01/31 04:43:43;;;;;;;9.00;2.03;;;;;;;0.15;55.40;93773.63;5062691;28;20059;-72
2022/01/31 04:46:09;;;;;;;12.52;1.80;;;;;;;0.15;55.22;93764.97;5062817;28;20070;-72
2022/01/31 04:48:35;;;;;;;7.35;1.85;;;;;;;0.17;55.81;93758.44;5062654;28;20023;-71
2022/01/31 04:51:01;;;;;;;11.88;1.80;;;;;;;0.06;55.56;93746.31;5062702;28;20192;-71
2022/01/31 04:53:29;;;;;;;15.50;2.08;;;;;;;0.04;55.58;93748.41;5062383;28;20017;-71
2022/01/31 04:55:55;;;;;;;3.50;1.48;;;;;;;-0.03;55.69;93760.91;5062424;28;20028;-71
2022/01/31 04:58:25;;;;;;;7.00;1.40;;;;;;;-0.07;55.56;93750.13;5062143;28;20021;-71
2022/01/31 05:00:50;;;;;;;10.63;1.80;;;;;;;-0.06;55.68;93749.09;5062014;28;20028;-71
2022/01/31 05:03:18;;;;;;;10.45;1.98;;;;;;;-0.07;55.24;93757.19;5062702;28;20084;-71
2022/01/31 05:05:45;;;;;;;5.20;1.45;;;;;;;-0.10;55.75;93755.06;5062654;28;20040;-72
2022/01/31 05:08:11;;;;;;;8.43;2.55;;;;;;;-0.07;55.77;93754.56;5061813;28;20024;-72
2022/01/31 05:10:43;;;;;;;10.55;1.60;;;;;;;-0.13;55.77;93753.72;5061431;28;20103;-71
2022/01/31 05:13:08;;;;;;;;;;;;;;;-0.11;56.12;93751.66;5062499;28;20074;-71
2022/01/31 05:15:34;;;;;;;8.50;2.17;;;;;;;-0.24;55.58;93747.63;5062103;28;19927;-71
2022/01/31 05:17:59;;;;;;;10.35;2.13;;;;;;;-0.24;55.46;93718.81;5062199;28;20184;-71
2022/01/31 05:20:24;;;;;;;14.60;2.67;;;;;;;-0.17;55.61;93736.16;5060962;28;20027;-71
2022/01/31 05:22:50;;;;;;;16.02;2.78;;;;;;;-0.21;55.88;93762.81;5062055;28;20013;-71
2022/01/31 05:25:16;;;;;;;7.07;1.85;;;;;;;-0.22;55.99;93753.41;5062286;28;20143;-72
2022/01/31 05:27:42;;;;;;;5.07;1.50;;;;;;;-0.20;55.99;93740.06;5062103;28;20025;-72
2022/01/31 05:30:08;;;;;;;8.77;1.83;;;;;;;-0.16;55.73;93742.94;5062156;28;20211;-72
2022/01/31 05:32:33;;;;;;;13.93;2.05;;;;;;;-0.17;55.84;93746.63;5062054;28;20051;-72
2022/01/31 05:35:01;;;;;;;8.52;1.80;;;;;;;-0.21;56.06;93747.09;5061915;28;20016;-72
2022/01/31 05:37:27;;;;;;;7.88;2.15;;;;;;;-0.22;56.07;93755.25;5062195;28;20047;-71
2022/01/31 05:39:52;;;;;;;10.13;2.90;;;;;;;-0.29;56.56;93754.63;5061965;28;20029;-72
2022/01/31 05:42:18;;;;;;;3.17;1.08;;;;;;;-0.22;56.19;93744.75;5062107;28;20101;-72
2022/01/31 05:44:47;;;;;;;16.73;2.75;;;;;;;-0.18;56.23;93758.13;5062330;28;20322;-72
2022/01/31 05:47:13;;;;;;;9.27;1.52;;;;;;;-0.17;55.95;93755.28;5061969;28;20025;-72
2022/01/31 05:49:38;;;;;;;7.60;1.30;;;;;;;-0.26;56.15;93754.94;5062016;28;20275;-72
2022/01/31 05:52:06;;;;;;;4.28;1.60;;;;;;;-0.23;56.08;93746.56;5061743;28;20020;-71
2022/01/31 05:54:37;;;;;;;7.90;1.88;;;;;;;-0.22;56.18;93739.53;5061709;28;20033;-71
2022/01/31 05:57:04;;;;;;;6.82;1.98;;;;;;;-0.18;56.57;93742.41;5061740;28;20024;-72
2022/01/31 05:59:29;;;;;;;10.30;2.33;;;;;;;-0.17;56.74;93746.63;5061988;28;20319;-72
2022/01/31 06:01:57;;;;;;;9.93;1.92;;;;;;;-0.22;56.02;93750.78;5061882;28;20039;-72
2022/01/31 06:04:23;;;;;;;17.23;3.53;;;;;;;-0.12;56.34;93755.31;5061790;28;20248;-72
2022/01/31 06:06:49;;;;;;;5.85;1.73;;;;;;;-0.11;55.57;93761.34;5061706;28;20020;-74
2022/01/31 06:09:15;;;;;;;11.95;2.05;;;;;;;-0.12;55.23;93765.00;5061737;28;20040;-73
2022/01/31 06:11:41;;;;;;;9.18;2.08;;;;;;;-0.04;54.22;93772.41;5063239;28;20067;-73
2022/01/31 06:14:08;;;;;;;3.65;2.10;;;;;;;-0.02;53.46;93772.94;5065565;28;20021;-73
2022/01/31 06:16:34;;;;;;;6.97;1.30;;;;;;;0.05;51.84;93773.53;5065319;28;20020;-72
2022/01/31 06:18:59;;;;;;;8.65;1.30;;;;;;;0.04;51.52;93756.25;5065393;28;20020;-73
2022/01/31 06:21:25;;;;;;;19.83;2.70;;;;;;;0.07;51.23;93755.75;5065331;28;20315;-72
2022/01/31 06:23:52;;;;;;;1.90;0.82;;;;;;;0.02;50.94;93760.97;5065231;28;20063;-70
2022/01/31 06:26:17;;;;;;;15.43;1.73;;;;;;;0.11;51.47;93763.91;5065272;28;20315;-72
2022/01/31 06:28:43;;;;;;;6.18;1.50;;;;;;;0.06;51.18;93748.94;5065015;28;20092;-72
2022/01/31 06:31:08;;;;;;;8.57;1.58;;;;;;;0.10;50.79;93731.66;5065277;28;20062;-72
2022/01/31 06:33:34;;;;;;;7.20;1.38;;;;;;;0.12;50.99;93747.94;5065026;28;20049;-71
2022/01/31 06:36:02;;;;;;;6.85;1.90;;;;;;;0.09;50.77;93745.78;5065031;28;20025;-72
2022/01/31 06:38:28;;;;;;;3.88;1.30;;;;;;;0.10;50.77;93734.28;5064788;28;20021;-72
2022/01/31 06:40:54;;;;;;;7.72;1.08;;;;;;;0.13;51.15;93725.13;5064913;28;20021;-71
2022/01/31 06:43:20;;;;;;;11.10;1.65;;;;;;;0.09;50.68;93714.34;5065073;28;20048;-71
2022/01/31 06:45:46;;;;;;;6.57;1.65;;;;;;;0.13;50.98;93704.94;5065032;28;20160;-71
2022/01/31 06:48:11;;;;;;;19.50;2.38;;;;;;;0.14;50.85;93693.44;5064668;28;20119;-72
2022/01/31 06:50:37;;;;;;;7.50;1.70;;;;;;;0.16;49.92;93709.69;5064410;28;20028;-72
2022/01/31 06:53:05;;;;;;;14.02;1.98;;;;;;;0.13;51.16;93699.69;5064564;28;20270;-72
2022/01/31 06:55:33;;;;;;;5.28;2.75;;;;;;;0.25;50.16;93712.63;5064769;28;20028;-72
2022/01/31 06:57:58;;;;;;;5.85;3.30;;;;;;;0.27;50.53;93721.03;5064753;28;20105;-72
2022/01/31 07:00:24;;;;;;;14.35;2.45;;;;;;;0.34;50.50;93720.81;5064760;28;20017;-72
2022/01/31 07:02:50;;;;;;;7.43;1.70;;;;;;;0.33;50.17;93722.66;5064783;28;20021;-72
2022/01/31 07:05:17;;;;;;;7.05;1.20;;;;;;;0.42;49.72;93720.34;5064586;28;20021;-72
2022/01/31 07:07:43;;;;;;;8.57;1.90;;;;;;;0.48;48.94;93711.44;5064742;28;20028;-74
2022/01/31 07:10:11;;;;;;;8.75;1.60;;;;;;;0.44;48.33;93702.50;5064942;28;20027;-73
2022/01/31 07:12:39;;;;;;;11.15;1.55;;;;;;;0.45;48.26;93706.72;5064366;28;20033;-73
2022/01/31 07:15:10;;;;;;;16.15;1.58;;;;;;;0.40;47.60;93714.56;5064453;28;20044;-73
2022/01/31 07:17:37;;;;;;;11.02;1.65;;;;;;;0.37;46.88;93699.34;5064211;28;20119;-72
2022/01/31 07:20:04;;;;;;;9.15;1.90;;;;;;;0.30;47.52;93689.06;5064191;28;20219;-71
2022/01/31 07:22:36;;;;;;;9.88;2.40;;;;;;;0.32;48.06;93715.81;5063892;28;20020;-72
2022/01/31 07:25:05;;;;;;;6.70;1.00;;;;;;;0.39;47.60;93702.50;5063574;28;20028;-77
2022/01/31 07:27:35;;;;;;;5.10;1.27;;;;;;;0.42;48.02;93704.59;5064859;28;20259;-79
2022/01/31 07:30:01;;;;;;;9.15;1.38;;;;;;;0.45;47.37;93695.44;5063378;28;20192;-77
2022/01/31 07:32:28;;;;;;;12.55;1.80;;;;;;;0.45;48.26;93685.75;5064269;28;20095;-80
2022/01/31 07:34:55;;;;;;;9.40;1.13;;;;;;;0.47;47.47;93661.88;5064527;28;20043;-81
2022/01/31 07:37:22;;;;;;;9.43;1.55;;;;;;;0.50;48.39;93677.91;5064682;28;20041;-80
2022/01/31 07:39:48;;;;;;;8.27;2.33;;;;;;;0.46;48.30;93661.09;5064070;28;20031;-75
2022/01/31 07:42:14;;;;;;;7.13;1.40;;;;;;;0.47;48.19;93667.94;5064896;28;20223;-74
2022/01/31 07:44:39;;;;;;;5.40;1.33;;;;;;;0.63;47.13;93649.63;5063897;28;20031;-75
2022/01/31 07:47:05;;;;;;;8.95;1.75;;;;;;;0.72;46.42;93650.72;5064084;28;20024;-75
2022/01/31 07:49:31;;;;;;;3.63;1.70;;;;;;;0.80;45.27;93640.53;5062738;28;20258;-74
2022/01/31 07:51:58;;;;;;;7.68;1.13;;;;;;;0.82;44.49;93669.13;5063708;28;20323;-75
2022/01/31 07:54:24;;;;;;;10.93;1.50;;;;;;;0.83;45.32;93654.97;5063795;28;20036;-75
2022/01/31 07:56:49;;;;;;;9.10;1.90;;;;;;;0.92;44.68;93639.53;5062934;28;20033;-78
2022/01/31 07:59:15;;;;;;;13.77;1.95;;;;;;;1.01;44.42;93661.59;5063624;28;20029;-83
2022/01/31 08:01:40;;;;;;;8.77;2.03;;;;;;;1.13;45.01;93658.72;5063558;28;20472;-77
2022/01/31 08:04:06;;;;;;;4.25;1.20;;;;;;;1.09;41.76;93657.69;5063654;28;20027;-74
2022/01/31 08:06:32;;;;;;;7.07;1.30;;;;;;;1.15;42.90;93664.50;5063563;28;20025;-75
2022/01/31 08:08:58;;;;;;;3.15;1.17;;;;;;;1.06;43.22;93659.00;5063469;28;20378;-76
2022/01/31 08:11:28;;;;;;;3.22;0.70;;;;;;;0.92;42.56;93639.53;5063038;28;20056;-76
2022/01/31 08:13:59;;;;;;;6.50;1.15;;;;;;;0.95;43.88;93642.41;5063737;28;20041;-76
2022/01/31 08:16:24;;;;;;;8.88;1.60;;;;;;;0.85;44.00;93631.88;5064184;28;20036;-75
2022/01/31 08:18:50;;;;;;;9.32;1.67;;;;;;;0.82;45.33;93645.53;5066422;28;20025;-74
2022/01/31 08:21:20;;;;;;;8.80;1.70;;;;;;;0.73;44.23;93641.81;5064070;28;20024;-75
2022/01/31 08:23:46;;;;;;;12.23;1.80;;;;;;;0.86;46.06;93643.19;5062909;28;20025;-74
2022/01/31 08:26:16;;;;;;;6.88;1.63;;;;;;;0.80;45.89;93651.03;5063312;28;20036;-75
2022/01/31 08:28:46;;;;;;;15.55;2.90;;;;;;;0.86;45.65;93630.06;5063196;28;20226;-74
2022/01/31 08:31:18;;;;;;;4.97;1.00;;;;;;;0.98;44.86;93634.03;5064224;28;20067;-74
2022/01/31 08:33:49;;;;;;;;;;;;;;;1.07;43.76;93625.66;5062689;28;20028;-73
2022/01/31 08:36:16;;;;;;;9.35;1.67;;;;;;;1.19;44.53;93642.72;5062984;28;19912;-74
2022/01/31 08:38:43;;;;;;;4.95;1.45;;;;;;;1.44;44.92;93643.03;5063479;28;20204;-72
2022/01/31 08:41:10;;;;;;;11.02;2.65;;;;;;;1.54;46.29;93662.22;5062638;28;20063;-72
2022/01/31 08:43:37;;;;;;;10.57;2.38;;;;;;;1.57;45.88;93653.03;5062738;28;20032;-72
2022/01/31 08:46:04;;;;;;;10.85;2.72;;;;;;;1.66;44.37;93646.19;5062293;28;20040;-73
2022/01/31 08:48:30;;;;;;;12.98;3.53;;;;;;;1.79;42.98;93655.41;5062473;28;20040;-73
2022/01/31 08:50:56;;;;;;;11.48;2.40;;;;;;;1.89;44.13;93649.34;5062589;28;20223;-76
2022/01/31 08:53:21;;;;;;;9.70;2.08;;;;;;;1.90;42.75;93635.19;5062296;28;20033;-75
2022/01/31 08:55:55;;;;;;;9.25;2.58;;;;;;;1.92;41.02;93654.09;5062564;28;20025;-75
2022/01/31 08:58:21;;;;;;;10.40;3.00;;;;;;;1.90;41.21;93653.56;5062604;28;20025;-75
2022/01/31 09:00:58;;;;;;;12.90;3.72;;;;;;;2.01;42.88;93657.75;5062396;28;20076;-77
2022/01/31 09:03:44;;;;;;;12.90;2.70;;;;;;;2.06;42.42;93639.38;5062078;28;20134;-76
2022/01/31 09:06:11;;;;;;;13.35;3.75;;;;;;;2.21;43.50;93644.59;5062122;28;20020;-75
2022/01/31 09:08:37;;;;;;;14.48;3.35;;;;;;;2.31;42.86;93643.00;5062072;28;20028;-76
2022/01/31 09:11:04;;;;;;;11.80;2.40;;;;;;;2.27;41.29;93650.63;5062041;28;20031;-76
2022/01/31 09:13:30;;;;;;;9.95;2.63;;;;;;;2.28;40.28;93641.72;5062004;28;20346;-75
2022/01/31 09:15:55;;;;;;;11.10;2.85;;;;;;;2.28;40.96;93630.38;5061923;28;20021;-75
2022/01/31 09:18:21;;;;;;;10.85;1.80;;;;;;;2.30;41.06;93629.06;5060655;28;20028;-75
2022/01/31 09:20:46;;;;;;;12.73;2.05;;;;;;;2.30;41.39;93620.38;5061690;28;20021;-75
2022/01/31 09:23:12;;;;;;;8.63;2.08;;;;;;;2.37;40.91;93618.28;5061943;28;20057;-74
2022/01/31 09:25:44;;;;;;;10.18;2.60;;;;;;;2.39;41.31;93616.16;5062030;28;20045;-76
2022/01/31 09:28:10;;;;;;;15.43;2.15;;;;;;;2.43;39.95;93590.91;5061770;28;20029;-75
2022/01/31 09:30:36;;;;;;;14.90;3.67;;;;;;;2.53;41.46;93593.47;5061916;28;20074;-77
2022/01/31 09:33:02;;;;;;;12.75;2.40;;;;;;;2.58;42.30;93603.97;5060840;28;20021;-76
2022/01/31 09:35:28;;;;;;;10.30;2.55;;;;;;;2.50;39.63;93585.34;5061875;28;20017;-76
2022/01/31 09:37:53;;;;;;;9.23;2.33;;;;;;;2.64;39.09;93590.81;5062138;28;20017;-76
2022/01/31 09:40:21;;;;;;;21.70;2.22;;;;;;;2.82;40.23;93584.94;5061997;28;20025;-75
2022/01/31 09:45:50;;;;;;;14.85;2.28;;;;;;;2.90;40.27;93589.63;5063748;28;20032;-77
2022/01/31 09:48:33;;;;;;;10.10;2.80;;;;;;;2.74;39.98;93553.91;5066039;28;20254;-75
2022/01/31 09:51:12;;;;;;;7.88;1.63;;;;;;;2.79;37.96;93572.34;5066067;28;20219;-76
2022/01/31 09:53:39;;;;;;;11.57;2.22;;;;;;;3.00;38.88;93563.25;5065918;28;20032;-77
2022/01/31 09:56:08;;;;;;;6.13;1.70;;;;;;;3.22;40.02;93554.16;5065790;28;20138;-78
2022/01/31 09:58:34;;;;;;;8.30;1.80;;;;;;;3.37;38.56;93567.22;5066069;28;20215;-77
2022/01/31 10:01:10;;;;;;;9.90;1.98;;;;;;;3.35;37.52;93543.00;5064777;28;20025;-78
2022/01/31 10:03:53;;;;;;;3.75;1.27;;;;;;;3.05;37.07;93548.47;5065749;28;20021;-77
2022/01/31 10:06:27;;;;;;;4.53;1.48;;;;;;;3.15;37.48;93566.84;5065822;28;20024;-77
2022/01/31 10:09:00;;;;;;;5.90;1.70;;;;;;;3.08;37.42;93537.41;5065416;28;20084;-75
2022/01/31 10:11:37;;;;;;;6.68;2.50;;;;;;;3.27;37.42;93522.50;5065417;28;20339;-76
2022/01/31 10:17:29;;;;;;;6.80;1.90;;;;;;;3.41;37.86;93505.00;5065229;28;20044;-75
2022/01/31 10:20:17;;;;;;;7.90;1.63;;;;;;;3.24;37.79;93496.75;5064256;28;20031;-76
2022/01/31 10:22:43;;;;;;;10.02;1.52;;;;;;;3.03;37.08;93498.72;5065288;28;20215;-76
2022/01/31 10:25:12;;;;;;;7.68;1.63;;;;;;;2.97;37.48;93489.28;5065465;28;20070;-75
2022/01/31 10:27:39;;;;;;;6.55;0.90;;;;;;;2.98;38.42;93506.66;5065411;28;20032;-75
2022/01/31 10:30:12;;;;;;;5.55;1.83;;;;;;;2.87;37.73;93463.84;5064362;28;20369;-75
2022/01/31 10:32:39;;;;;;;;;;;;;;;2.95;37.91;93458.00;5065698;28;20104;-76
2022/01/31 10:35:11;;;;;;;8.75;1.38;;;;;;;3.10;37.84;93467.59;5065225;28;19972;-75
2022/01/31 10:37:40;;;;;;;6.28;1.20;;;;;;;3.29;36.61;93467.72;5065228;28;20025;-76
2022/01/31 10:54:14;;;;;;;;;;;;;;;3.46;35.97;93408.53;5065460;28;20078;-75
2022/01/31 10:56:48;;;;;;;7.60;2.13;;;;;;;3.41;36.86;93381.19;5063737;28;20059;-77
2022/01/31 10:59:17;;;;;;;4.97;1.83;;;;;;;3.64;36.63;93396.50;5064815;28;20017;-77
2022/01/31 11:01:48;;;;;;;4.22;1.58;;;;;;;3.70;36.96;93393.53;5064028;28;20030;-74
2022/01/31 11:04:15;;;;;;;4.53;1.65;;;;;;;3.70;36.07;93385.63;5063402;28;20017;-76
2022/01/31 11:06:45;;;;;;;4.95;1.60;;;;;;;3.72;35.35;93380.84;5064398;28;20027;-75
2022/01/31 11:09:13;;;;;;;6.13;1.55;;;;;;;3.84;36.33;93396.28;5064484;28;20295;-75
2022/01/31 11:11:42;;;;;;;13.10;1.73;;;;;;;3.69;35.95;93399.88;5064546;28;20049;-75
2022/01/31 11:14:09;;;;;;;9.77;1.70;;;;;;;3.74;37.05;93391.91;5064232;28;20021;-76
2022/01/31 11:16:37;;;;;;;5.03;1.25;;;;;;;3.88;35.08;93392.00;5064151;28;20028;-75
2022/01/31 11:19:07;;;;;;;3.65;1.10;;;;;;;3.82;32.98;93372.81;5064452;28;20031;-76
2022/01/31 11:21:39;;;;;;;4.43;1.35;;;;;;;4.00;34.21;93373.91;5064282;28;20092;-75
2022/01/31 11:24:17;;;;;;;11.90;1.88;;;;;;;4.13;35.23;93372.47;5064251;28;20107;-75
2022/01/31 11:26:49;;;;;;;6.68;1.30;;;;;;;3.96;34.53;93374.78;5064172;28;20187;-76
2022/01/31 11:29:15;;;;;;;7.75;1.35;;;;;;;3.77;33.82;93357.06;5064108;28;20096;-76
2022/01/31 11:31:41;;;;;;;6.18;0.80;;;;;;;3.85;34.05;93353.03;5064199;28;20021;-77
2022/01/31 11:34:07;;;;;;;5.30;1.55;;;;;;;4.00;33.98;93337.00;5063722;28;20020;-77
2022/01/31 11:36:36;;;;;;;7.53;1.65;;;;;;;4.15;34.45;93341.31;5063784;28;20017;-74
2022/01/31 11:39:13;;;;;;;4.72;1.27;;;;;;;4.25;33.89;93336.94;5063857;28;20025;-74
2022/01/31 11:41:46;;;;;;;2.80;0.82;;;;;;;4.16;32.15;93332.31;5063741;28;20021;-75
2022/01/31 11:44:17;;;;;;;;;;;;;;;4.43;33.58;93330.88;5064125;28;20029;-75
2022/01/31 11:46:42;;;;;;;5.28;1.42;;;;;;;4.63;33.04;93319.22;5063660;28;19904;-76
2022/01/31 11:49:12;;;;;;;4.25;1.17;;;;;;;4.87;32.34;93310.38;5063737;28;20393;-75
2022/01/31 11:51:50;;;;;;;3.58;0.98;;;;;;;4.80;31.79;93322.13;5063565;28;20086;-76
2022/01/31 11:54:22;;;;;;;3.95;1.40;;;;;;;4.34;31.69;93311.50;5063629;28;20032;-76
2022/01/31 11:56:50;;;;;;;;;;;;;;;4.12;31.27;93286.47;5064036;28;20024;-75
2022/01/31 11:59:16;;;;;;;5.03;0.90;;;;;;;4.15;30.23;93269.28;5063242;28;19928;-75
2022/01/31 12:01:42;;;;;;;3.88;0.75;;;;;;;4.30;30.79;93276.19;5062327;28;20036;-75